Acadiana Regional Airport
KARA : now visible

Airfield :











YOU CAN JOIN US ON...

 
LOGIN :

Register | Disclaimer

   EN    FR    IT 

 









Legend :    VFR   Marginal VFR   IFR   Intensive IFR   Very Intensive IFR
Visi :
Ceiling :
>= 8 km
>= 3000ft
5 to 8 km
1000 to 3000 ft
1500m to 5 km
500 to 1000 ft
800 to 1500m
200 to 500 ft
< 800m
< 200 ft
Symbols :   Thunderstorms  Fog  Heavy snow  Heavy precipitations  Wind > 20 kt






- Airport Elevation : 24 ft


KARA - Acadiana Regional

CURRENT METAR :
  • 190153Z 00000KT 10SM CLR 13/12 A2993 RMK AO2 SLP134 T01280117

EXPIRED METARs :
  • 190053Z 23005KT 10SM CLR 14/10 A2991 RMK AO2 SLP128 T01390100
  • 182353Z 30004KT 10SM CLR 15/10 A2990 RMK AO2 SLP122 T01500100 10217 20150 53007

TAF KARA
Valid from the 19 at 00:00 until the 20 at 00:00 UTC


182321Z 1900/1924 VRB04KT P6SM SKC
TEMPO 1910/1914 5SM BR SCT002



MET'MAP, your aeronautical weather chart ! - Copyright ORBIFLY December 2007 - Disclaimer

ORBIFLY MET'MAP TEAM :

Programming & Development : Alexandra Zaïnal
Concept & Development : Baudouin d'Aumeries
Co-Development & Prog : Marc-Olivier Méhu
Technical & hardware support : Manuel Goepfert

Contact : metmap@orbifly.com




SOURCES & CREDITS :

   NOAA       Earth
Advisory